Time;durP1;ratioP1;P1;durP2;ratioP2;P2;SDS_P1;SDS_P2;PMS_P1;PMS_P2;Temp;Humidity;BMP_temperature;BMP_pressure;BME280_temperature;BME280_humidity;BME280_pressure;Samples;Min_cycle;Max_cycle;Signal;HPM_P1;HPM_P2
2023/02/26 00:00:12;;;;;;;20.20;5.80;;;;;;;3.08;100.00;97563.63;67582;1281;1016403;-60
2023/02/26 00:03:35;;;;;;;17.50;5.10;;;;;;;3.03;100.00;97568.17;67551;1282;1016862;-59
2023/02/26 00:06:37;;;;;;;19.50;5.50;;;;;;;3.10;100.00;97569.23;67556;1282;1016440;-60
2023/02/26 00:09:40;;;;;;;;;;;;;;;3.13;100.00;97572.02;67584;1282;1016445;-59
2023/02/26 00:12:42;;;;;;;19.60;5.60;;;;;;;3.23;100.00;97573.58;67552;1282;1016479;-60
2023/02/26 00:15:46;;;;;;;17.10;5.10;;;;;;;3.22;100.00;97585.36;67570;1281;1016502;-59
2023/02/26 00:18:48;;;;;;;18.70;5.20;;;;;;;3.03;100.00;97585.14;67540;1282;1016437;-59
2023/02/26 00:21:51;;;;;;;16.50;4.70;;;;;;;2.92;100.00;97593.45;67569;1282;1016431;-61
2023/02/26 00:24:53;;;;;;;17.40;5.30;;;;;;;2.98;100.00;97598.88;67546;1282;1015811;-60
2023/02/26 00:27:56;;;;;;;15.60;5.00;;;;;;;3.00;100.00;97597.86;67554;1282;1016228;-60
2023/02/26 00:30:58;;;;;;;19.00;4.90;;;;;;;3.12;100.00;97607.14;67574;1282;1016413;-60
2023/02/26 00:34:01;;;;;;;18.60;4.70;;;;;;;3.35;100.00;97614.45;67565;1282;1016424;-59
2023/02/26 00:37:03;;;;;;;15.70;4.30;;;;;;;3.27;100.00;97616.93;67552;1281;1016464;-59
2023/02/26 00:40:07;;;;;;;16.80;5.00;;;;;;;3.30;100.00;97617.99;67539;1281;1016151;-60
2023/02/26 00:43:09;;;;;;;18.70;5.10;;;;;;;3.31;100.00;97619.98;67539;1259;1016092;-59
2023/02/26 00:46:11;;;;;;;15.70;4.60;;;;;;;3.47;100.00;97619.03;67562;1282;1016485;-60
2023/02/26 00:49:14;;;;;;;16.30;4.50;;;;;;;3.43;100.00;97630.43;67591;1282;1018017;-59
2023/02/26 00:52:16;;;;;;;18.50;4.80;;;;;;;3.47;100.00;97627.13;67575;1282;1016423;-59
2023/02/26 00:55:19;;;;;;;15.80;5.20;;;;;;;3.49;100.00;97633.27;67577;1281;1016422;-59
2023/02/26 00:58:21;;;;;;;14.30;4.20;;;;;;;3.55;100.00;97641.61;67559;1282;1018636;-59
2023/02/26 01:01:24;;;;;;;16.00;4.60;;;;;;;3.55;100.00;97640.73;67528;1282;1016428;-59
2023/02/26 01:04:26;;;;;;;15.60;4.50;;;;;;;3.44;100.00;97651.67;67557;1282;1019351;-59
2023/02/26 01:07:28;;;;;;;16.50;5.00;;;;;;;3.32;100.00;97655.88;67569;1281;1016172;-59
2023/02/26 01:10:31;;;;;;;16.80;4.70;;;;;;;3.28;100.00;97661.60;67585;1281;1016417;-60
2023/02/26 01:13:33;;;;;;;15.70;4.70;;;;;;;3.33;100.00;97662.08;67531;1282;1016409;-60
2023/02/26 01:16:36;;;;;;;15.80;4.60;;;;;;;3.50;100.00;97668.98;67551;1281;1015965;-59
2023/02/26 01:19:38;;;;;;;17.30;4.90;;;;;;;3.45;100.00;97668.02;67518;1281;1016155;-59
2023/02/26 01:22:40;;;;;;;14.70;4.50;;;;;;;3.63;100.00;97678.03;67532;1282;1016352;-59
2023/02/26 01:25:43;;;;;;;18.90;5.50;;;;;;;3.60;100.00;97682.97;67582;1281;1016454;-60
2023/02/26 01:28:45;;;;;;;18.60;5.40;;;;;;;3.48;100.00;97690.52;67581;1281;1015798;-59
2023/02/26 01:31:48;;;;;;;17.80;4.80;;;;;;;3.34;100.00;97693.45;67549;1281;1016651;-60
2023/02/26 01:34:50;;;;;;;16.80;4.90;;;;;;;3.20;100.00;97701.40;67543;1281;1016300;-60
2023/02/26 01:37:52;;;;;;;14.20;4.70;;;;;;;3.28;100.00;97711.05;67539;1281;1016567;-59
2023/02/26 01:40:55;;;;;;;17.30;4.80;;;;;;;3.27;100.00;97712.46;67585;1282;1016371;-60
2023/02/26 01:43:57;;;;;;;14.90;4.40;;;;;;;3.10;100.00;97720.20;67567;1281;1016456;-59
2023/02/26 01:47:00;;;;;;;14.60;4.10;;;;;;;3.06;100.00;97723.32;67566;1282;1016369;-60
2023/02/26 01:50:02;;;;;;;15.40;4.50;;;;;;;3.18;100.00;97720.35;67529;1282;1016419;-59
2023/02/26 01:53:05;;;;;;;15.10;4.10;;;;;;;3.21;100.00;97719.30;67526;1281;1015835;-60
2023/02/26 01:56:07;;;;;;;15.50;4.20;;;;;;;3.21;100.00;97721.40;67568;1282;1016276;-59
2023/02/26 01:59:10;;;;;;;14.80;3.90;;;;;;;3.23;100.00;97728.36;67591;1282;1016415;-59
2023/02/26 02:02:12;;;;;;;16.90;4.10;;;;;;;3.29;100.00;97733.80;67556;1282;1016492;-59
2023/02/26 02:05:14;;;;;;;13.50;4.00;;;;;;;3.24;100.00;97731.81;67530;1282;1016435;-59
2023/02/26 02:08:17;;;;;;;16.50;4.00;;;;;;;3.16;100.00;97737.36;67542;1282;1016478;-59
2023/02/26 02:11:19;;;;;;;14.70;3.90;;;;;;;3.15;100.00;97746.58;67575;1282;1019699;-60
2023/02/26 02:14:22;;;;;;;13.90;3.40;;;;;;;3.06;100.00;97749.94;67561;1282;1016480;-59
2023/02/26 02:17:24;;;;;;;16.20;4.00;;;;;;;3.00;100.00;97747.27;67537;1281;1018192;-59
2023/02/26 02:20:27;;;;;;;14.70;3.60;;;;;;;2.91;100.00;97746.16;67568;1281;1016902;-59
2023/02/26 02:23:30;;;;;;;16.40;3.90;;;;;;;2.90;100.00;97755.01;67603;1281;1016524;-60
2023/02/26 02:26:32;;;;;;;18.00;4.10;;;;;;;2.78;100.00;97755.06;67572;1281;1016482;-59
2023/02/26 02:29:34;;;;;;;16.40;4.00;;;;;;;2.80;100.00;97760.11;67565;1282;1016361;-59
2023/02/26 02:32:37;;;;;;;15.10;3.80;;;;;;;2.77;100.00;97762.16;67541;1281;1016312;-60
2023/02/26 02:35:39;;;;;;;13.20;3.70;;;;;;;2.73;100.00;97767.52;67574;1281;1016370;-59
2023/02/26 02:38:42;;;;;;;15.00;3.80;;;;;;;2.71;100.00;97770.23;67558;1281;1016452;-60
2023/02/26 02:41:44;;;;;;;13.00;3.80;;;;;;;2.77;100.00;97776.69;67567;1281;1016230;-60
2023/02/26 02:44:46;;;;;;;15.70;4.50;;;;;;;2.84;100.00;97782.20;67524;1281;1016516;-59
2023/02/26 02:47:49;;;;;;;16.20;4.30;;;;;;;2.91;100.00;97786.54;67564;1281;1016320;-60
2023/02/26 02:50:51;;;;;;;16.60;4.20;;;;;;;2.99;100.00;97789.80;67525;1281;1016827;-60
2023/02/26 02:53:54;;;;;;;;;;;;;;;3.05;100.00;97794.55;67599;1281;1016841;-59
2023/02/26 02:56:59;;;;;;;18.10;5.30;;;;;;;3.07;100.00;97798.42;67564;1282;1015962;-60
2023/02/26 03:00:03;;;;;;;17.20;4.80;;;;;;;3.07;100.00;97799.45;67514;1281;1016901;-59
2023/02/26 03:03:06;;;;;;;16.80;4.20;;;;;;;3.06;100.00;97799.86;67589;1281;1017236;-59
2023/02/26 03:06:08;;;;;;;18.10;4.60;;;;;;;3.06;100.00;97800.89;67585;1282;1015876;-60
2023/02/26 03:09:11;;;;;;;19.90;4.70;;;;;;;3.09;100.00;97804.05;67566;1281;1016540;-59
2023/02/26 03:12:13;;;;;;;16.70;4.20;;;;;;;2.96;100.00;97807.73;67562;1281;1016619;-60
2023/02/26 03:15:16;;;;;;;18.20;4.50;;;;;;;2.83;100.00;97815.39;67602;1282;1016539;-60
2023/02/26 03:18:18;;;;;;;20.40;5.10;;;;;;;3.05;100.00;97814.58;67592;1281;1016237;-59
2023/02/26 03:21:21;;;;;;;16.40;4.90;;;;;;;3.07;100.00;97822.43;67602;1281;1016448;-59
2023/02/26 03:24:23;;;;;;;19.10;5.30;;;;;;;2.99;100.00;97826.58;67572;1281;1016444;-60
2023/02/26 03:27:26;;;;;;;18.20;5.00;;;;;;;3.06;100.00;97830.45;67544;1282;1016039;-59
2023/02/26 03:30:29;;;;;;;19.50;4.60;;;;;;;3.15;100.00;97835.35;67571;1282;1016271;-59
2023/02/26 03:33:31;;;;;;;19.80;5.10;;;;;;;3.12;100.00;97838.08;67543;1281;1016258;-59
2023/02/26 03:36:33;;;;;;;17.70;4.30;;;;;;;2.97;100.00;97849.48;67566;1281;1016487;-60
2023/02/26 03:39:36;;;;;;;18.30;5.20;;;;;;;2.78;100.00;97849.63;67556;1281;1016333;-59
2023/02/26 03:42:38;;;;;;;19.20;5.00;;;;;;;2.83;100.00;97850.63;67596;1281;1016196;-60
2023/02/26 03:45:41;;;;;;;16.50;4.40;;;;;;;2.77;100.00;97850.58;67579;1281;1016197;-59
2023/02/26 03:48:43;;;;;;;17.10;4.70;;;;;;;2.75;100.00;97856.51;67569;1281;1018873;-60
2023/02/26 03:51:46;;;;;;;16.50;4.40;;;;;;;2.81;100.00;97857.64;67539;1281;1016263;-60
2023/02/26 03:54:48;;;;;;;19.00;4.50;;;;;;;2.76;100.00;97860.79;67613;1281;1016677;-59
2023/02/26 03:57:50;;;;;;;19.50;4.70;;;;;;;2.69;100.00;97865.41;67610;1281;1016452;-59
2023/02/26 04:00:54;;;;;;;17.40;4.80;;;;;;;2.62;100.00;97872.48;67606;1282;1016384;-59
2023/02/26 04:03:56;;;;;;;16.30;4.90;;;;;;;2.57;100.00;97875.95;67576;1282;1016485;-59
2023/02/26 04:06:59;;;;;;;14.70;4.30;;;;;;;2.62;100.00;97879.36;67590;1282;1016447;-59
2023/02/26 04:10:01;;;;;;;20.30;4.80;;;;;;;2.61;100.00;97881.13;67578;1282;1016255;-59
2023/02/26 04:13:04;;;;;;;14.00;3.90;;;;;;;2.63;100.00;97888.46;67577;1281;1016540;-60
2023/02/26 04:16:06;;;;;;;17.90;4.40;;;;;;;2.59;100.00;97885.54;67528;1259;1016516;-59
2023/02/26 04:19:09;;;;;;;21.80;4.60;;;;;;;2.63;100.00;97893.80;67590;1281;1016058;-60
2023/02/26 04:22:11;;;;;;;17.50;4.00;;;;;;;2.61;100.00;97893.04;67609;1282;1016444;-59
2023/02/26 04:25:14;;;;;;;17.90;4.10;;;;;;;2.56;100.00;97894.46;67599;1282;1018184;-59
2023/02/26 04:28:16;;;;;;;19.20;4.10;;;;;;;2.48;100.00;97899.30;67567;1282;1016464;-59
2023/02/26 04:31:18;;;;;;;17.80;4.80;;;;;;;2.48;100.00;97904.45;67557;1281;1016260;-59
2023/02/26 04:34:21;;;;;;;21.20;4.70;;;;;;;2.57;100.00;97909.08;67573;1281;1016520;-59
2023/02/26 04:37:23;;;;;;;17.50;4.10;;;;;;;2.55;100.00;97915.05;67583;1281;1016367;-59
2023/02/26 04:40:26;;;;;;;17.10;3.90;;;;;;;2.46;100.00;97918.02;67561;1282;1016494;-59
2023/02/26 04:43:28;;;;;;;;;;;;;;;2.51;100.00;97920.23;67537;1281;1016374;-60
2023/02/26 04:46:31;;;;;;;16.10;4.20;;;;;;;2.43;100.00;97924.34;67590;1282;1016336;-60
2023/02/26 04:49:33;;;;;;;17.00;4.20;;;;;;;2.40;100.00;97924.97;67591;1282;1016413;-59
2023/02/26 04:52:36;;;;;;;20.60;4.80;;;;;;;2.46;100.00;97926.66;67590;1281;1016494;-59
2023/02/26 04:55:39;;;;;;;15.20;4.00;;;;;;;2.45;100.00;97933.59;67563;1282;1016518;-59
2023/02/26 04:58:42;;;;;;;17.70;4.10;;;;;;;2.48;100.00;97935.19;67574;1282;1016155;-59
2023/02/26 05:01:44;;;;;;;17.10;4.50;;;;;;;2.64;100.00;97933.27;67517;1275;1016284;-59
2023/02/26 05:04:47;;;;;;;18.30;4.50;;;;;;;2.71;100.00;97933.33;67526;1282;1016308;-59
2023/02/26 05:07:52;;;;;;;18.80;4.60;;;;;;;2.74;100.00;97936.67;67567;1282;1018242;-59
2023/02/26 05:10:55;;;;;;;16.20;4.60;;;;;;;2.63;100.00;97943.88;67550;1282;1018868;-60
2023/02/26 05:13:57;;;;;;;18.30;4.60;;;;;;;2.65;100.00;97946.02;67559;1282;1016498;-59
2023/02/26 05:16:59;;;;;;;16.30;4.30;;;;;;;2.69;100.00;97948.27;67584;1282;1016205;-59
2023/02/26 05:20:02;;;;;;;21.00;4.70;;;;;;;2.73;100.00;97955.20;67599;1282;1015809;-58
2023/02/26 05:23:05;;;;;;;;;;;;;;;2.76;100.00;97960.39;67551;1282;1016194;-59
2023/02/26 05:26:07;;;;;;;17.20;4.60;;;;;;;2.79;100.00;97969.77;67530;1282;1016352;-60
2023/02/26 05:29:09;;;;;;;15.80;4.60;;;;;;;2.83;100.00;97975.30;67569;1282;1016462;-59
2023/02/26 05:32:12;;;;;;;17.80;4.60;;;;;;;2.80;100.00;97978.52;65176;1282;5397519;-59
2023/02/26 05:35:14;;;;;;;18.00;4.40;;;;;;;2.83;100.00;97988.77;67528;1282;1016427;-59
2023/02/26 05:38:17;;;;;;;17.00;4.40;;;;;;;2.73;100.00;97998.53;67537;1282;1016579;-59
2023/02/26 05:41:19;;;;;;;15.50;4.30;;;;;;;2.77;100.00;98001.10;67593;1259;1016406;-60
2023/02/26 05:44:22;;;;;;;17.00;4.00;;;;;;;2.79;100.00;98016.41;67563;1282;1016359;-59
2023/02/26 05:47:24;;;;;;;17.90;4.00;;;;;;;2.82;100.00;98021.65;67584;1282;1015646;-60
2023/02/26 05:50:27;;;;;;;20.10;4.70;;;;;;;2.81;100.00;98032.03;67533;1281;1017368;-60
2023/02/26 05:53:29;;;;;;;18.10;4.20;;;;;;;2.69;100.00;98038.22;67565;1282;1016693;-60
2023/02/26 05:56:32;;;;;;;15.90;4.00;;;;;;;2.77;100.00;98031.66;67580;1282;1016508;-60
2023/02/26 05:59:34;;;;;;;15.40;4.00;;;;;;;2.80;100.00;98045.21;67591;1282;1016433;-60
2023/02/26 06:02:36;;;;;;;15.60;4.30;;;;;;;2.62;100.00;98051.45;67569;1282;1016580;-60
2023/02/26 06:05:39;;;;;;;19.70;5.30;;;;;;;2.76;100.00;98053.80;67541;1282;1016478;-60
2023/02/26 06:08:41;;;;;;;15.30;4.20;;;;;;;2.81;100.00;98064.31;67591;1282;1016114;-60
2023/02/26 06:11:44;;;;;;;14.70;4.50;;;;;;;2.83;100.00;98071.48;67569;1282;1016357;-59
2023/02/26 06:14:46;;;;;;;16.00;4.40;;;;;;;3.07;100.00;98075.83;67579;1282;1016494;-59
2023/02/26 06:17:49;;;;;;;14.40;4.10;;;;;;;3.06;100.00;98076.23;67543;1282;1016154;-59
2023/02/26 06:20:51;;;;;;;17.80;4.20;;;;;;;3.10;100.00;98082.10;67532;1282;1016281;-59
2023/02/26 06:23:54;;;;;;;15.60;4.20;;;;;;;3.01;100.00;98091.30;67556;1259;1016465;-59
2023/02/26 06:26:56;;;;;;;15.90;4.10;;;;;;;3.04;100.00;98100.15;67594;1282;1016437;-59
2023/02/26 06:29:58;;;;;;;16.10;3.90;;;;;;;2.98;100.00;98114.72;67574;1282;1016310;-59
2023/02/26 06:33:01;;;;;;;15.10;4.00;;;;;;;2.99;100.00;98117.81;67561;1282;1016128;-59
2023/02/26 06:36:03;;;;;;;16.30;3.90;;;;;;;2.96;100.00;98124.31;67547;1282;1017284;-59
2023/02/26 06:39:06;;;;;;;15.80;4.00;;;;;;;2.86;100.00;98129.55;67588;1259;1016360;-59
2023/02/26 06:42:09;;;;;;;17.50;4.10;;;;;;;2.75;100.00;98139.30;67557;1281;1017996;-60
2023/02/26 06:45:12;;;;;;;18.40;4.60;;;;;;;2.80;100.00;98148.62;67528;1282;1016237;-59
2023/02/26 06:48:14;;;;;;;17.60;3.90;;;;;;;2.84;100.00;98146.73;67542;1282;1016432;-59
2023/02/26 06:51:17;;;;;;;15.30;4.50;;;;;;;2.89;100.00;98150.68;67599;1282;1016435;-59
2023/02/26 06:54:19;;;;;;;18.30;4.80;;;;;;;2.87;100.00;98154.57;67588;1281;1016496;-59
2023/02/26 06:57:21;;;;;;;15.50;4.70;;;;;;;2.93;100.00;98162.95;67571;1282;1016485;-59
2023/02/26 07:00:24;;;;;;;16.00;4.30;;;;;;;2.91;100.00;98167.85;67540;1282;1016478;-59
2023/02/26 07:03:26;;;;;;;17.80;4.40;;;;;;;2.95;100.00;98170.12;67586;1281;1016358;-60
2023/02/26 07:06:29;;;;;;;17.00;4.60;;;;;;;2.94;100.00;98174.98;67570;1281;1016492;-60
2023/02/26 07:09:31;;;;;;;18.20;4.20;;;;;;;2.98;100.00;98179.86;67580;1282;1016499;-60
2023/02/26 07:12:34;;;;;;;14.50;3.90;;;;;;;2.96;100.00;98185.81;67532;1281;1016152;-60
2023/02/26 07:15:36;;;;;;;13.60;4.20;;;;;;;2.99;100.00;98189.14;67556;1281;1016336;-60
2023/02/26 07:18:39;;;;;;;16.20;4.20;;;;;;;3.06;100.00;98192.64;67595;1281;1016111;-61
2023/02/26 07:21:41;;;;;;;14.80;4.00;;;;;;;3.09;100.00;98189.27;67617;1281;1016421;-60
2023/02/26 07:24:43;;;;;;;19.30;3.90;;;;;;;3.03;100.00;98195.38;67603;1282;1016400;-60
2023/02/26 07:27:46;;;;;;;15.30;3.90;;;;;;;2.97;100.00;98201.64;67534;1282;1016302;-61
2023/02/26 07:30:48;;;;;;;19.40;4.60;;;;;;;2.94;100.00;98211.44;67555;1281;1016232;-59
2023/02/26 07:33:51;;;;;;;16.70;4.60;;;;;;;2.80;100.00;98218.04;67523;1282;1018329;-60
2023/02/26 07:36:53;;;;;;;17.50;4.40;;;;;;;2.78;100.00;98223.13;67592;1282;1016368;-59
2023/02/26 07:39:56;;;;;;;17.40;4.60;;;;;;;2.89;100.00;98227.20;67571;1282;1018355;-59
2023/02/26 07:42:58;;;;;;;15.00;3.60;;;;;;;3.14;100.00;98227.74;67548;1281;1016850;-59
2023/02/26 07:46:00;;;;;;;13.80;4.30;;;;;;;3.28;100.00;98229.42;67523;1281;1016256;-60
2023/02/26 07:49:03;;;;;;;14.90;4.70;;;;;;;3.30;100.00;98236.98;67573;1281;1016366;-60
2023/02/26 07:52:06;;;;;;;14.90;4.20;;;;;;;3.34;100.00;98243.38;67568;1281;1016340;-59
2023/02/26 07:55:09;;;;;;;15.70;4.90;;;;;;;3.32;100.00;98245.37;67602;1282;1016541;-59
2023/02/26 07:58:11;;;;;;;14.90;3.90;;;;;;;3.33;100.00;98249.80;67615;1281;1016206;-59
2023/02/26 08:01:14;;;;;;;16.00;4.00;;;;;;;3.27;100.00;98257.48;67607;1281;1016305;-59
2023/02/26 08:04:19;;;;;;;14.80;3.70;;;;;;;3.17;100.00;98262.18;67570;1281;1016459;-59
2023/02/26 08:07:21;;;;;;;14.30;3.90;;;;;;;3.22;100.00;98267.19;67567;1281;1016311;-60
2023/02/26 08:10:24;;;;;;;17.20;4.70;;;;;;;3.31;100.00;98267.87;67609;1281;1018955;-59
2023/02/26 08:13:26;;;;;;;15.50;3.70;;;;;;;3.34;100.00;98272.06;67558;1281;1016400;-59
2023/02/26 08:16:29;;;;;;;15.50;4.00;;;;;;;3.37;100.00;98280.21;67533;1281;1016583;-59
2023/02/26 08:19:31;;;;;;;17.40;3.90;;;;;;;3.21;100.00;98277.92;67591;1281;1016548;-59
2023/02/26 08:22:34;;;;;;;17.90;4.80;;;;;;;3.51;100.00;98287.10;67605;1282;1016419;-59
2023/02/26 08:25:36;;;;;;;14.20;3.90;;;;;;;3.60;100.00;98292.08;67590;1282;1016490;-60
2023/02/26 08:28:38;;;;;;;18.10;5.20;;;;;;;3.60;100.00;98291.03;67529;1282;1016302;-59
2023/02/26 08:31:41;;;;;;;18.00;4.30;;;;;;;3.64;100.00;98296.75;67550;1282;1016487;-59
2023/02/26 08:34:43;;;;;;;17.80;4.10;;;;;;;3.67;100.00;98298.18;67576;1282;1018297;-59
2023/02/26 08:37:46;;;;;;;19.10;4.90;;;;;;;3.70;100.00;98301.56;67584;1282;1016254;-59
2023/02/26 08:40:48;;;;;;;18.50;4.30;;;;;;;3.66;100.00;98306.02;67602;1282;1016571;-59
2023/02/26 08:43:51;;;;;;;17.10;4.50;;;;;;;3.55;100.00;98306.48;67539;1282;1016363;-59
2023/02/26 08:46:53;;;;;;;18.20;3.90;;;;;;;3.59;100.00;98306.98;67566;1281;1015780;-59
2023/02/26 08:49:57;;;;;;;19.10;4.50;;;;;;;3.56;100.00;98313.16;67580;1281;1015904;-59
2023/02/26 08:53:00;;;;;;;15.30;4.10;;;;;;;3.75;100.00;98312.90;67616;1282;1016327;-59
2023/02/26 08:56:02;;;;;;;16.20;4.10;;;;;;;4.10;100.00;98316.80;67607;1282;1015668;-59
2023/02/26 08:59:05;;;;;;;19.10;3.90;;;;;;;4.16;100.00;98325.54;67605;1281;1015838;-59
2023/02/26 09:02:07;;;;;;;17.20;4.10;;;;;;;4.24;100.00;98326.61;67581;1282;1016388;-59
2023/02/26 09:05:10;;;;;;;16.30;4.20;;;;;;;4.33;100.00;98332.46;67545;1282;1016463;-59
2023/02/26 09:08:14;;;;;;;18.80;4.40;;;;;;;4.34;100.00;98336.38;67586;1282;1016421;-60
2023/02/26 09:11:17;;;;;;;18.50;4.40;;;;;;;4.27;100.00;98344.64;67559;1281;1015983;-59
2023/02/26 09:14:19;;;;;;;17.60;4.00;;;;;;;4.40;100.00;98350.33;67532;1281;1016485;-59
2023/02/26 09:17:22;;;;;;;16.30;4.00;;;;;;;4.54;100.00;98357.66;67574;1282;1016690;-59
2023/02/26 09:20:24;;;;;;;17.50;4.80;;;;;;;4.60;100.00;98357.25;67606;1282;1016268;-59
2023/02/26 09:23:27;;;;;;;16.70;4.10;;;;;;;4.68;100.00;98356.39;67586;1282;1016456;-60
2023/02/26 09:26:29;;;;;;;15.80;4.20;;;;;;;4.90;100.00;98361.45;67569;1282;1016002;-59
2023/02/26 09:29:32;;;;;;;16.20;4.40;;;;;;;4.96;100.00;98371.77;67576;1282;1018191;-59
2023/02/26 09:32:34;;;;;;;16.90;4.00;;;;;;;5.00;100.00;98363.80;67592;1282;1016186;-60
2023/02/26 09:35:37;;;;;;;18.40;4.20;;;;;;;5.15;100.00;98367.09;67580;1282;1016140;-60
2023/02/26 09:38:40;;;;;;;15.80;3.80;;;;;;;5.20;100.00;98371.52;67550;1282;1016482;-60
2023/02/26 09:41:42;;;;;;;16.50;4.30;;;;;;;5.04;100.00;98375.06;67602;1282;1016493;-60
2023/02/26 09:44:47;;;;;;;14.50;4.00;;;;;;;4.98;100.00;98383.61;67602;1282;1016566;-59
2023/02/26 09:47:50;;;;;;;16.60;4.20;;;;;;;5.08;100.00;98385.59;67551;1282;1016484;-59
2023/02/26 09:50:53;;;;;;;16.60;4.10;;;;;;;4.72;100.00;98406.07;67599;1282;1016198;-59
2023/02/26 09:53:55;;;;;;;14.90;3.80;;;;;;;4.62;100.00;98408.77;67602;1282;1017293;-59
2023/02/26 09:56:57;;;;;;;17.40;4.10;;;;;;;4.41;100.00;98422.80;67549;1282;1016350;-59
2023/02/26 10:00:00;;;;;;;;;;;;;;;4.47;100.00;98422.55;67518;1282;1016001;-60
2023/02/26 10:03:03;;;;;;;12.80;3.60;;;;;;;4.40;100.00;98435.15;67586;1282;1016698;-60
2023/02/26 10:06:05;;;;;;;13.30;3.20;;;;;;;4.33;100.00;98449.30;67562;1282;1016656;-60
2023/02/26 10:09:08;;;;;;;13.00;3.00;;;;;;;4.19;100.00;98445.70;67570;1282;1016456;-59
2023/02/26 10:12:10;;;;;;;16.90;3.10;;;;;;;4.25;100.00;98450.98;67552;1282;1016268;-60
2023/02/26 10:15:13;;;;;;;11.40;2.50;;;;;;;4.30;100.00;98452.89;67580;1282;1016572;-60
2023/02/26 10:18:16;;;;;;;;;;;;;;;4.50;100.00;98455.54;67601;1282;1016604;-59
2023/02/26 10:21:18;;;;;;;;;;;;;;;4.58;100.00;98462.09;67565;1282;1016289;-59
2023/02/26 10:24:21;;;;;;;11.80;2.70;;;;;;;4.66;100.00;98467.49;67594;1282;1017220;-60
2023/02/26 10:27:23;;;;;;;7.30;2.20;;;;;;;4.62;100.00;98471.48;67595;1282;1016464;-60
2023/02/26 10:30:26;;;;;;;10.40;2.30;;;;;;;4.53;100.00;98480.34;67592;1282;1016321;-59
2023/02/26 10:33:28;;;;;;;10.90;2.50;;;;;;;4.40;100.00;98483.27;67541;1282;1017923;-60
2023/02/26 10:36:31;;;;;;;11.70;2.80;;;;;;;4.40;100.00;98486.75;60198;1282;2004029;-59
2023/02/26 10:39:33;;;;;;;;;;;;;;;4.41;100.00;98495.19;51027;1282;2015896;-60
2023/02/26 10:42:36;;;;;;;13.40;2.90;;;;;;;4.51;100.00;98498.41;48149;1281;2015887;-59
2023/02/26 10:45:38;;;;;;;14.90;2.80;;;;;;;4.62;100.00;98505.91;51050;1282;2016440;-59
2023/02/26 10:48:41;;;;;;;10.90;2.80;;;;;;;4.61;100.00;98508.57;48035;1282;2016018;-59
2023/02/26 10:51:43;;;;;;;14.80;3.00;;;;;;;4.69;100.00;98516.02;48775;1281;2015858;-60
2023/02/26 10:54:47;;;;;;;;;;;;;;;4.66;100.00;98525.85;49662;1282;2015621;-59
2023/02/26 10:57:50;;;;;;;12.60;2.80;;;;;;;4.92;100.00;98527.88;50413;1282;2019301;-59
2023/02/26 11:00:54;;;;;;;12.20;2.70;;;;;;;5.05;100.00;98537.20;50402;1282;2016418;-59
2023/02/26 11:03:57;;;;;;;15.70;3.30;;;;;;;5.06;100.00;98539.77;49686;1282;2015968;-60
2023/02/26 11:07:01;;;;;;;12.50;2.70;;;;;;;5.03;100.00;98544.39;49670;1282;2016360;-60
2023/02/26 11:10:05;;;;;;;10.00;2.50;;;;;;;5.16;100.00;98548.67;49534;1282;2016404;-59
2023/02/26 11:13:09;;;;;;;12.70;3.50;;;;;;;5.37;100.00;98544.83;48937;1282;2015507;-60
2023/02/26 11:16:13;;;;;;;10.80;2.60;;;;;;;5.40;100.00;98548.70;50404;1282;2016445;-59
2023/02/26 11:19:15;;;;;;;13.10;2.90;;;;;;;4.98;100.00;98549.45;48795;1282;2016372;-60
2023/02/26 11:22:18;;;;;;;10.70;2.50;;;;;;;5.19;100.00;98556.70;48917;1281;2015657;-60
2023/02/26 11:25:20;;;;;;;;;;;;;;;5.24;100.00;98562.04;50430;1282;2016392;-60
2023/02/26 11:28:23;;;;;;;9.80;2.40;;;;;;;5.17;100.00;98567.89;48785;1282;2016080;-59
2023/02/26 11:31:25;;;;;;;9.90;2.10;;;;;;;4.87;100.00;98570.39;49650;1282;2016023;-60
2023/02/26 11:34:29;;;;;;;8.40;2.30;;;;;;;4.90;100.00;98576.16;46662;1281;2016001;-59
2023/02/26 11:37:32;;;;;;;10.00;2.70;;;;;;;4.83;100.00;98569.69;50278;1282;2016133;-59
2023/02/26 11:40:34;;;;;;;9.00;2.60;;;;;;;4.81;100.00;98568.17;48922;1282;2015803;-60
2023/02/26 11:43:38;;;;;;;9.40;2.40;;;;;;;4.72;100.00;98568.77;51925;1282;2015995;-59
2023/02/26 11:46:41;;;;;;;11.00;2.60;;;;;;;4.69;100.00;98571.98;48042;1282;2015879;-60
2023/02/26 11:49:44;;;;;;;10.30;2.60;;;;;;;4.93;100.00;98576.89;66811;1281;2015688;-60
2023/02/26 11:52:46;;;;;;;10.80;2.90;;;;;;;5.03;100.00;98579.56;67603;1282;1016441;-60
2023/02/26 11:55:49;;;;;;;10.40;2.90;;;;;;;5.28;100.00;98587.70;67580;1282;1016321;-60
2023/02/26 11:58:51;;;;;;;11.20;2.90;;;;;;;5.08;100.00;98588.38;67549;1282;1018162;-59
2023/02/26 12:01:53;;;;;;;10.40;2.70;;;;;;;5.04;100.00;98591.16;67552;1282;1016483;-59
2023/02/26 12:04:57;;;;;;;13.50;2.70;;;;;;;5.09;100.00;98594.41;67601;1282;1019910;-59
2023/02/26 12:08:02;;;;;;;10.50;2.70;;;;;;;5.03;100.00;98596.23;67581;1282;1016204;-59
2023/02/26 12:11:04;;;;;;;13.50;3.10;;;;;;;5.11;100.00;98594.84;67537;1282;1016273;-59
2023/02/26 12:14:07;;;;;;;14.80;3.30;;;;;;;5.16;100.00;98600.17;67605;1281;1016411;-59
2023/02/26 12:17:09;;;;;;;10.70;2.60;;;;;;;5.20;100.00;98601.73;67542;1282;1016413;-60
2023/02/26 12:20:14;;;;;;;10.80;2.70;;;;;;;5.27;100.00;98606.64;67562;1282;1017089;-59
2023/02/26 12:23:16;;;;;;;11.30;2.80;;;;;;;5.09;100.00;98617.98;67541;1282;1017366;-59
2023/02/26 12:26:19;;;;;;;11.00;2.60;;;;;;;4.97;100.00;98620.75;67588;1261;1017431;-60
2023/02/26 12:29:23;;;;;;;13.50;3.00;;;;;;;4.81;100.00;98632.83;67591;1282;1016506;-60
2023/02/26 12:32:26;;;;;;;12.90;3.30;;;;;;;4.73;100.00;98634.19;67507;1282;1019627;-59
2023/02/26 12:35:28;;;;;;;12.20;3.00;;;;;;;4.57;100.00;98637.92;67536;1282;1016539;-60
2023/02/26 12:38:31;;;;;;;15.50;3.30;;;;;;;4.46;100.00;98641.15;67529;1282;1016210;-60
2023/02/26 12:41:33;;;;;;;14.50;3.30;;;;;;;4.40;100.00;98640.65;67558;1282;1016395;-60
2023/02/26 12:44:38;;;;;;;12.00;3.10;;;;;;;4.41;100.00;98646.17;67528;1282;1016391;-60
2023/02/26 12:47:40;;;;;;;14.50;3.40;;;;;;;4.40;100.00;98641.52;67533;1281;1016321;-60
2023/02/26 12:50:43;;;;;;;15.00;3.30;;;;;;;4.45;100.00;98646.87;67596;1282;1017212;-59
2023/02/26 12:53:48;;;;;;;12.60;3.10;;;;;;;4.52;100.00;98648.33;67533;1281;1016342;-60
2023/02/26 12:56:50;;;;;;;14.00;2.80;;;;;;;4.41;100.00;98654.29;67520;1282;1016255;-60
2023/02/26 12:59:53;;;;;;;17.90;3.50;;;;;;;4.53;100.00;98655.23;67536;1282;1016321;-59
2023/02/26 13:02:55;;;;;;;;;;;;;;;4.71;100.00;98662.52;67583;1282;1016391;-59
2023/02/26 13:05:59;;;;;;;13.80;3.50;;;;;;;4.72;100.00;98664.88;67560;1282;1016457;-59
2023/02/26 13:09:02;;;;;;;16.60;3.50;;;;;;;4.65;100.00;98667.56;67576;1282;1016121;-60
2023/02/26 13:12:04;;;;;;;15.70;3.50;;;;;;;4.82;100.00;98669.66;67516;1282;1016381;-60
2023/02/26 13:15:07;;;;;;;13.70;3.20;;;;;;;4.85;100.00;98672.52;67526;1282;1016376;-59
2023/02/26 13:18:10;;;;;;;12.90;3.10;;;;;;;4.88;100.00;98676.21;67587;1282;1016424;-59
2023/02/26 13:21:12;;;;;;;12.50;3.10;;;;;;;4.92;100.00;98676.74;67512;1282;1018337;-59
2023/02/26 13:24:15;;;;;;;14.60;3.20;;;;;;;4.72;100.00;98687.05;67544;1282;1016461;-59
2023/02/26 13:27:17;;;;;;;15.30;3.60;;;;;;;4.63;100.00;98689.27;67561;1282;1015869;-60
2023/02/26 13:30:19;;;;;;;14.80;3.10;;;;;;;4.68;100.00;98692.40;67576;1282;1016180;-59
2023/02/26 13:33:25;;;;;;;15.70;3.00;;;;;;;4.60;100.00;98699.13;67541;1282;1018025;-60
2023/02/26 13:36:27;;;;;;;13.20;3.10;;;;;;;4.45;100.00;98702.30;67573;1282;1015793;-60
2023/02/26 13:39:29;;;;;;;15.80;3.10;;;;;;;4.31;100.00;98708.52;67565;1282;1016550;-60
2023/02/26 13:42:32;;;;;;;14.00;3.20;;;;;;;4.53;100.00;98709.09;67581;1282;1017741;-60
2023/02/26 13:45:34;;;;;;;14.20;3.40;;;;;;;4.57;100.00;98711.02;67512;1282;1015838;-60
2023/02/26 13:48:37;;;;;;;12.70;3.10;;;;;;;4.58;100.00;98714.61;67530;1282;1016401;-60
2023/02/26 13:51:39;;;;;;;15.10;3.50;;;;;;;4.39;100.00;98718.80;67559;1282;1016483;-60